Time;durP1;ratioP1;P1;durP2;ratioP2;P2;SDS_P1;SDS_P2;PMS_P1;PMS_P2;Temp;Humidity;BMP_temperature;BMP_pressure;BME280_temperature;BME280_humidity;BME280_pressure;Samples;Min_cycle;Max_cycle;Signal;HPM_P1;HPM_P2
2022/08/15 00:01:23;;;;;;;2.10;1.73;;;;;;;25.15;67.03;99926.38;5020982;28;20033;-65
2022/08/15 00:03:52;;;;;;;3.47;1.90;;;;;;;25.13;67.03;99920.56;5027882;28;20421;-66
2022/08/15 00:06:24;;;;;;;2.47;1.83;;;;;;;24.99;67.85;99924.03;5028015;28;20081;-68
2022/08/15 00:08:54;;;;;;;4.70;1.73;;;;;;;24.84;68.46;99917.72;5031618;28;20072;-67
2022/08/15 00:11:31;;;;;;;2.40;1.73;;;;;;;24.91;68.38;99920.16;5032209;28;20053;-65
2022/08/15 00:14:32;;;;;;;2.25;1.92;;;;;;;24.78;68.86;99920.38;5022540;28;20383;-69
2022/08/15 00:17:09;;;;;;;2.85;2.00;;;;;;;24.72;69.12;99916.72;5003625;28;20498;-69
2022/08/15 00:19:39;;;;;;;2.35;1.90;;;;;;;24.74;69.37;99911.53;5022488;28;20057;-67
2022/08/15 00:22:07;;;;;;;2.42;2.03;;;;;;;24.77;69.28;99913.34;5029052;28;20045;-66
2022/08/15 00:24:35;;;;;;;2.90;2.10;;;;;;;24.79;69.01;99910.88;5028596;28;20146;-65
2022/08/15 00:27:07;;;;;;;6.32;2.00;;;;;;;24.64;69.79;99906.53;5031558;28;20034;-67
2022/08/15 00:29:34;;;;;;;3.05;1.80;;;;;;;24.63;70.01;99902.22;5017232;28;20525;-68
2022/08/15 00:32:01;;;;;;;3.97;2.08;;;;;;;24.51;70.49;99904.00;5023401;28;20026;-68
2022/08/15 00:34:28;;;;;;;3.83;1.95;;;;;;;24.34;71.30;99897.34;5033291;28;20072;-67
2022/08/15 00:36:53;;;;;;;2.42;1.80;;;;;;;24.21;71.95;99898.81;5038450;28;20083;-65
2022/08/15 00:39:22;;;;;;;6.13;1.98;;;;;;;24.25;71.76;99902.16;5030401;28;20025;-67
2022/08/15 00:41:50;;;;;;;2.70;1.88;;;;;;;24.16;72.00;99889.94;5027234;28;20084;-66
2022/08/15 00:44:30;;;;;;;2.55;1.83;;;;;;;24.15;72.88;99885.69;5016779;28;20029;-66
2022/08/15 00:46:59;;;;;;;4.30;1.67;;;;;;;24.16;72.55;99883.66;5032384;28;20056;-66
2022/08/15 00:49:28;;;;;;;3.03;2.13;;;;;;;24.14;72.85;99886.13;5032588;28;20100;-67
2022/08/15 00:51:59;;;;;;;2.28;1.88;;;;;;;24.10;72.69;99888.28;5022186;28;20457;-66
2022/08/15 00:54:46;;;;;;;2.40;1.83;;;;;;;24.04;72.85;99888.16;5015110;28;20482;-66
2022/08/15 00:57:17;;;;;;;3.88;2.35;;;;;;;24.03;73.17;99883.13;5032188;28;20029;-68
2022/08/15 00:59:47;;;;;;;3.03;2.28;;;;;;;24.23;71.89;99894.34;5031405;28;20044;-65
2022/08/15 01:02:15;;;;;;;5.22;1.92;;;;;;;24.14;72.46;99878.63;5033236;28;20033;-65
2022/08/15 01:04:41;;;;;;;4.10;2.00;;;;;;;24.22;72.35;99872.78;5027464;28;20108;-67
2022/08/15 01:07:08;;;;;;;3.50;2.38;;;;;;;24.04;72.36;99879.91;5020926;28;20136;-66
2022/08/15 01:09:37;;;;;;;7.07;2.30;;;;;;;24.03;72.90;99877.63;5029611;28;20026;-65
2022/08/15 01:12:05;;;;;;;3.42;2.38;;;;;;;24.10;72.73;99878.03;5030210;28;20382;-66
2022/08/15 01:14:32;;;;;;;3.22;2.47;;;;;;;24.08;72.71;99874.22;5026055;28;20442;-66
2022/08/15 01:16:59;;;;;;;4.25;2.35;;;;;;;24.13;72.77;99871.63;5027266;28;20042;-65
2022/08/15 01:19:36;;;;;;;3.05;2.35;;;;;;;23.93;73.18;99868.63;5038083;28;20025;-66
2022/08/15 01:22:43;;;;;;;4.93;2.38;;;;;;;23.90;73.27;99868.78;5031506;28;20033;-69
2022/08/15 01:25:19;;;;;;;2.88;2.22;;;;;;;24.02;73.36;99870.59;5053284;28;20033;-68
2022/08/15 01:27:51;;;;;;;4.47;2.53;;;;;;;23.95;73.43;99871.66;5022886;28;20102;-66
2022/08/15 01:30:22;;;;;;;4.03;2.50;;;;;;;23.87;73.78;99864.97;5030544;28;20111;-66
2022/08/15 01:32:47;;;;;;;3.20;2.03;;;;;;;24.03;73.15;99872.13;5015925;28;20117;-66
2022/08/15 01:35:14;;;;;;;7.18;2.63;;;;;;;23.86;73.87;99868.19;5025459;28;20116;-66
2022/08/15 01:37:41;;;;;;;5.50;2.53;;;;;;;23.83;74.22;99855.34;5027823;28;20091;-67
2022/08/15 01:40:34;;;;;;;6.38;2.25;;;;;;;23.84;74.33;99849.41;5030735;28;20429;-67
2022/08/15 01:42:59;;;;;;;2.75;2.33;;;;;;;23.86;74.24;99846.19;5028821;28;20037;-66
2022/08/15 01:45:29;;;;;;;4.47;2.22;;;;;;;23.61;75.39;99836.34;5012106;28;20044;-67
2022/08/15 01:48:19;;;;;;;3.88;2.55;;;;;;;23.46;76.11;99832.69;5034592;28;20037;-67
2022/08/15 01:50:49;;;;;;;3.38;2.13;;;;;;;23.28;76.63;99839.00;5011477;28;20399;-66
2022/08/15 01:53:24;;;;;;;2.77;2.23;;;;;;;23.34;76.55;99835.66;5012692;28;20132;-67
2022/08/15 01:56:19;;;;;;;3.63;2.28;;;;;;;23.27;77.52;99839.44;5026961;28;20302;-68
2022/08/15 01:58:45;;;;;;;;;;;;;;;23.12;78.09;99842.06;5012589;28;20037;-66
2022/08/15 02:01:17;;;;;;;3.03;2.20;;;;;;;23.25;78.00;99825.41;5022490;28;19971;-66
2022/08/15 02:03:46;;;;;;;3.22;1.98;;;;;;;23.09;78.17;99823.75;5021361;28;20116;-69
2022/08/15 02:06:20;;;;;;;6.13;2.17;;;;;;;23.05;78.91;99828.63;5031162;28;20116;-68
2022/08/15 02:08:47;;;;;;;3.47;2.20;;;;;;;22.97;79.10;99824.69;5016413;28;20125;-66
2022/08/15 02:11:17;;;;;;;7.45;2.35;;;;;;;22.96;79.05;99830.63;5046274;28;20386;-69
2022/08/15 02:13:47;;;;;;;2.60;1.98;;;;;;;23.02;79.41;99839.78;5026144;28;20035;-66
2022/08/15 02:16:15;;;;;;;6.05;2.42;;;;;;;23.04;79.51;99831.84;5044918;28;20571;-67
2022/08/15 02:18:41;;;;;;;5.38;2.30;;;;;;;23.04;79.25;99829.88;5019100;28;20064;-66
2022/08/15 02:21:07;;;;;;;2.50;2.08;;;;;;;22.96;78.74;99831.38;5022978;28;20042;-66
2022/08/15 02:23:33;;;;;;;3.83;2.30;;;;;;;22.96;79.11;99814.13;5011058;28;20083;-66
2022/08/15 02:25:59;;;;;;;2.55;1.85;;;;;;;23.08;78.53;99824.22;5023877;28;20508;-66
2022/08/15 02:28:25;;;;;;;3.55;2.47;;;;;;;22.96;79.16;99825.91;5026546;28;20417;-67
2022/08/15 02:30:53;;;;;;;9.32;2.55;;;;;;;22.88;79.75;99829.44;5030338;28;20034;-66
2022/08/15 02:33:21;;;;;;;3.83;2.60;;;;;;;22.86;79.74;99827.13;5031800;28;20168;-66
2022/08/15 02:35:48;;;;;;;3.72;2.20;;;;;;;22.87;79.64;99825.91;5037289;28;20037;-66
2022/08/15 02:38:14;;;;;;;3.63;2.30;;;;;;;22.75;80.54;99832.31;5028924;28;20124;-66
2022/08/15 02:40:40;;;;;;;4.05;2.25;;;;;;;22.74;80.63;99830.81;5031009;28;20183;-66
2022/08/15 02:43:09;;;;;;;3.42;2.22;;;;;;;22.71;80.50;99825.44;5032538;28;20041;-69
2022/08/15 02:45:47;;;;;;;3.88;2.55;;;;;;;22.79;80.55;99827.44;5034975;28;20770;-66
2022/08/15 02:48:14;;;;;;;3.70;2.55;;;;;;;22.78;80.22;99825.94;5030472;28;20397;-68
2022/08/15 02:50:40;;;;;;;3.95;2.50;;;;;;;22.71;80.54;99826.22;5040932;28;20481;-66
2022/08/15 02:53:17;;;;;;;6.68;2.50;;;;;;;22.75;80.88;99826.81;5049240;28;20034;-67
2022/08/15 02:55:46;;;;;;;5.40;2.30;;;;;;;22.58;81.22;99825.59;5048639;28;20029;-66
2022/08/15 02:58:13;;;;;;;4.22;2.40;;;;;;;22.52;81.42;99824.66;5021253;28;20434;-66
2022/08/15 03:00:42;;;;;;;2.90;2.22;;;;;;;22.47;82.32;99827.22;5014323;28;20033;-66
2022/08/15 03:03:14;;;;;;;5.13;2.20;;;;;;;22.43;82.47;99827.38;5052263;28;20083;-66
2022/08/15 03:05:45;;;;;;;2.78;2.22;;;;;;;22.41;82.93;99833.31;5032405;28;20053;-66
2022/08/15 03:08:11;;;;;;;2.70;2.22;;;;;;;22.36;82.69;99833.91;5033978;28;20033;-66
2022/08/15 03:10:38;;;;;;;4.57;2.60;;;;;;;22.45;82.60;99838.69;5017435;28;20032;-66
2022/08/15 03:13:08;;;;;;;3.13;2.45;;;;;;;22.39;82.61;99829.50;5012129;28;20022;-66
2022/08/15 03:15:38;;;;;;;3.63;2.42;;;;;;;22.39;83.07;99829.50;5031163;28;20056;-69
2022/08/15 03:18:04;;;;;;;3.70;2.33;;;;;;;22.36;82.90;99827.66;5023222;28;20087;-66
2022/08/15 03:20:30;;;;;;;3.10;2.13;;;;;;;22.34;83.28;99825.38;5029461;28;20277;-68
2022/08/15 03:22:57;;;;;;;4.53;2.38;;;;;;;22.19;83.94;99821.69;5020963;28;20402;-65
2022/08/15 03:25:27;;;;;;;5.35;2.05;;;;;;;22.16;83.68;99819.84;5012470;28;20125;-66
2022/08/15 03:27:54;;;;;;;3.25;2.50;;;;;;;22.18;84.10;99822.91;5027900;28;20092;-69
2022/08/15 03:30:21;;;;;;;3.40;2.40;;;;;;;22.18;84.22;99808.44;5029955;28;20025;-71
2022/08/15 03:32:53;;;;;;;4.47;2.28;;;;;;;22.19;83.92;99815.44;5030408;28;20042;-68
2022/08/15 03:35:23;;;;;;;3.35;2.33;;;;;;;22.03;84.41;99810.22;5047620;28;20029;-68
2022/08/15 03:37:49;;;;;;;3.45;2.28;;;;;;;22.08;84.53;99813.16;5033056;28;20033;-71
2022/08/15 03:40:15;;;;;;;2.78;2.17;;;;;;;21.99;84.82;99809.63;5051569;28;20452;-70
2022/08/15 03:43:09;;;;;;;2.92;2.22;;;;;;;22.08;84.54;99817.84;5050866;28;20025;-68
2022/08/15 03:45:34;;;;;;;4.32;2.60;;;;;;;22.23;83.93;99810.56;5051858;28;20068;-68
2022/08/15 03:48:01;;;;;;;4.57;2.70;;;;;;;22.24;84.01;99806.63;5033909;28;20115;-68
2022/08/15 03:50:29;;;;;;;3.63;2.50;;;;;;;22.18;84.45;99809.19;5030949;28;20675;-69
2022/08/15 03:53:03;;;;;;;3.78;2.30;;;;;;;22.18;84.50;99816.66;5022995;28;20375;-68
2022/08/15 03:55:31;;;;;;;5.20;2.55;;;;;;;22.17;84.06;99815.91;5028381;28;20069;-68
2022/08/15 03:57:57;;;;;;;3.72;2.42;;;;;;;22.20;83.90;99811.50;5030931;28;20076;-68
2022/08/15 04:00:27;;;;;;;4.18;2.28;;;;;;;22.09;84.46;99816.63;5030320;28;20084;-69
2022/08/15 04:03:08;;;;;;;4.20;2.20;;;;;;;22.02;85.14;99814.94;5030940;28;20107;-68
2022/08/15 04:05:35;;;;;;;3.38;2.38;;;;;;;21.98;85.69;99811.59;5030900;28;20033;-69
2022/08/15 04:08:03;;;;;;;4.18;2.60;;;;;;;22.06;85.29;99809.31;5014059;28;20140;-68
2022/08/15 04:10:29;;;;;;;5.47;2.35;;;;;;;21.98;85.12;99811.59;5031201;28;20565;-68
2022/08/15 04:12:55;;;;;;;2.88;2.40;;;;;;;21.94;84.93;99812.94;5035391;23;20139;-66
2022/08/15 04:15:21;;;;;;;3.85;2.50;;;;;;;21.91;85.48;99816.59;5000952;28;20077;-66
2022/08/15 04:17:47;;;;;;;3.38;2.22;;;;;;;21.83;86.04;99812.59;5010469;28;20034;-66
2022/08/15 04:20:13;;;;;;;2.67;1.98;;;;;;;21.84;86.23;99817.63;5010110;28;20409;-67
2022/08/15 04:22:45;;;;;;;5.13;2.88;;;;;;;21.88;86.14;99815.50;5006016;28;20030;-66
2022/08/15 04:25:18;;;;;;;6.40;2.72;;;;;;;21.88;86.32;99822.97;5004310;28;20406;-66
2022/08/15 04:27:51;;;;;;;5.45;2.60;;;;;;;21.96;86.56;99816.75;5004040;28;20445;-66
2022/08/15 04:30:17;;;;;;;3.65;2.55;;;;;;;21.86;86.62;99811.69;5006410;28;20136;-66
2022/08/15 04:32:43;;;;;;;5.72;2.50;;;;;;;21.84;86.80;99811.38;5009308;28;20018;-66
2022/08/15 04:35:11;;;;;;;3.47;2.58;;;;;;;21.79;86.63;99806.47;5022737;28;20043;-66
2022/08/15 04:37:39;;;;;;;3.28;2.25;;;;;;;21.86;87.20;99812.44;5006716;28;20034;-66
2022/08/15 04:40:08;;;;;;;3.33;2.28;;;;;;;21.95;86.44;99809.72;5007234;28;20035;-66
2022/08/15 04:42:45;;;;;;;3.97;2.40;;;;;;;21.89;86.47;99808.78;5006909;28;20026;-66
2022/08/15 04:45:11;;;;;;;3.08;2.38;;;;;;;21.89;86.65;99813.53;5001158;28;20045;-66
2022/08/15 04:47:36;;;;;;;3.20;2.22;;;;;;;21.94;86.55;99808.22;5001008;28;20042;-67
2022/08/15 04:50:05;;;;;;;3.60;2.55;;;;;;;21.86;87.27;99803.47;5007254;28;20092;-66
2022/08/15 04:52:30;;;;;;;4.50;2.25;;;;;;;21.92;87.59;99804.38;4997185;28;20026;-66
2022/08/15 04:54:58;;;;;;;3.67;2.63;;;;;;;21.91;87.49;99800.88;5013952;28;20064;-66
2022/08/15 04:57:25;;;;;;;3.15;2.40;;;;;;;22.00;86.79;99800.94;5004464;28;20030;-66
2022/08/15 04:59:50;;;;;;;4.00;2.60;;;;;;;22.10;86.80;99802.47;5008610;28;20030;-66
2022/08/15 05:02:24;;;;;;;9.98;2.60;;;;;;;22.12;86.82;99804.75;5007836;28;20041;-66
2022/08/15 05:04:50;;;;;;;3.10;2.22;;;;;;;22.11;86.93;99795.75;5017896;28;20038;-66
2022/08/15 05:07:37;;;;;;;3.25;2.35;;;;;;;22.27;86.10;99794.72;5010394;28;20394;-66
2022/08/15 05:10:08;;;;;;;4.05;2.45;;;;;;;22.35;85.88;99793.22;4949158;29;20047;-66
2022/08/15 05:12:35;;;;;;;3.10;2.40;;;;;;;22.32;85.37;99794.13;4945038;29;20077;-66
2022/08/15 05:15:02;;;;;;;6.18;2.65;;;;;;;22.48;85.13;99791.09;4949254;29;20535;-66
2022/08/15 05:17:29;;;;;;;3.38;2.58;;;;;;;22.58;84.65;99789.13;4932327;28;20040;-66
2022/08/15 05:19:54;;;;;;;3.50;2.40;;;;;;;22.52;85.22;99790.94;4935445;28;20426;-67
2022/08/15 05:22:19;;;;;;;4.00;2.55;;;;;;;22.50;85.80;99794.16;4960535;28;20050;-66
2022/08/15 05:24:46;;;;;;;2.70;2.30;;;;;;;22.54;86.02;99791.25;4959443;28;20058;-66
2022/08/15 05:27:12;;;;;;;3.20;2.22;;;;;;;22.51;86.48;99789.41;4944761;28;20554;-66
2022/08/15 05:29:40;;;;;;;3.08;2.20;;;;;;;22.62;85.53;99792.50;4969015;28;20344;-66
2022/08/15 05:32:07;;;;;;;3.50;2.50;;;;;;;22.64;85.23;99787.31;4958215;28;20043;-65
2022/08/15 05:34:32;;;;;;;3.97;2.78;;;;;;;22.86;84.54;99790.66;4950278;28;20039;-65
2022/08/15 05:36:59;;;;;;;3.38;2.50;;;;;;;22.88;84.14;99791.72;4931406;29;20168;-66
2022/08/15 05:39:28;;;;;;;3.67;2.40;;;;;;;22.99;85.11;99797.53;4946203;29;20042;-66
2022/08/15 05:41:57;;;;;;;4.00;2.50;;;;;;;23.13;83.91;99785.13;4936510;28;20102;-67
2022/08/15 05:44:40;;;;;;;3.67;2.38;;;;;;;23.38;83.36;99795.78;4927118;28;20530;-66
2022/08/15 05:47:28;;;;;;;4.43;2.72;;;;;;;23.74;82.34;99792.91;4972399;28;20132;-66
2022/08/15 05:49:56;;;;;;;3.40;2.38;;;;;;;24.14;79.90;99790.56;4999646;28;20437;-66
2022/08/15 05:52:57;;;;;;;2.67;2.00;;;;;;;24.32;79.07;99786.16;5003206;28;20107;-66
2022/08/15 05:55:48;;;;;;;2.80;2.13;;;;;;;24.18;80.50;99788.41;4993049;28;20041;-66
2022/08/15 05:58:33;;;;;;;4.07;2.65;;;;;;;24.44;79.01;99793.44;5015056;28;20119;-66
2022/08/15 06:01:02;;;;;;;3.80;2.55;;;;;;;24.77;76.96;99788.59;5013394;28;20033;-66
2022/08/15 06:03:29;;;;;;;5.75;2.75;;;;;;;24.89;77.03;99796.59;5014294;28;20037;-66
2022/08/15 06:05:59;;;;;;;6.20;2.67;;;;;;;25.25;75.67;99791.94;5007165;28;20033;-66
2022/08/15 06:08:30;;;;;;;3.17;2.57;;;;;;;25.39;73.45;99791.19;5020987;28;20095;-66
2022/08/15 06:11:03;;;;;;;4.10;2.53;;;;;;;25.56;72.78;99797.75;5009810;28;20493;-66
2022/08/15 06:13:38;;;;;;;6.28;3.08;;;;;;;25.75;73.68;99786.03;4992523;28;20095;-66
2022/08/15 06:16:21;;;;;;;4.05;2.55;;;;;;;26.06;72.36;99793.75;5011904;28;20037;-65
2022/08/15 06:18:47;;;;;;;5.32;2.95;;;;;;;26.26;70.56;99793.78;5011166;28;20026;-66
2022/08/15 06:21:33;;;;;;;6.20;2.83;;;;;;;26.34;70.31;99791.38;4991964;28;20041;-65
2022/08/15 06:24:15;;;;;;;6.13;2.92;;;;;;;26.59;69.81;99790.66;4999593;28;20144;-65
2022/08/15 06:27:00;;;;;;;4.22;2.60;;;;;;;26.76;68.80;99789.63;4999580;28;20041;-65
2022/08/15 06:29:47;;;;;;;3.50;2.78;;;;;;;26.87;68.10;99791.00;5010303;28;20026;-65
2022/08/15 06:32:36;;;;;;;5.25;2.92;;;;;;;26.71;68.04;99787.56;5010191;28;20064;-65
2022/08/15 06:35:23;;;;;;;3.83;2.70;;;;;;;26.94;68.49;99776.75;5006486;28;20384;-65
2022/08/15 06:37:56;;;;;;;4.93;2.80;;;;;;;27.12;68.58;99777.16;5029740;28;20033;-65
2022/08/15 06:40:46;;;;;;;5.78;3.28;;;;;;;27.24;67.27;99776.00;5030503;28;20128;-65
2022/08/15 06:43:13;;;;;;;5.85;2.60;;;;;;;27.12;67.34;99784.72;4997251;28;20038;-66
2022/08/15 06:46:01;;;;;;;3.80;2.70;;;;;;;27.10;66.95;99776.16;5012642;28;20030;-65
2022/08/15 06:48:51;;;;;;;4.72;3.05;;;;;;;27.33;67.82;99788.94;5011409;28;20033;-65
2022/08/15 06:51:18;;;;;;;8.35;2.80;;;;;;;27.38;68.88;99777.16;4952244;28;20043;-65
2022/08/15 06:53:53;;;;;;;5.65;3.05;;;;;;;27.32;67.80;99785.41;4948468;29;20191;-65
2022/08/15 06:56:36;;;;;;;4.82;2.67;;;;;;;27.68;67.14;99778.38;4934060;29;20067;-66
2022/08/15 06:59:10;;;;;;;4.78;3.17;;;;;;;28.02;65.48;99788.44;4935873;29;20601;-65
2022/08/15 07:01:58;;;;;;;6.32;3.10;;;;;;;28.08;63.46;99783.69;4936704;29;20081;-65
2022/08/15 07:05:07;;;;;;;3.65;2.70;;;;;;;28.29;64.42;99773.97;4921167;29;20130;-65
2022/08/15 07:07:51;;;;;;;4.93;2.90;;;;;;;28.41;63.68;99780.31;4916838;29;20040;-67
2022/08/15 07:10:27;;;;;;;4.63;2.88;;;;;;;28.55;63.52;99773.84;4917083;29;20508;-65
2022/08/15 07:13:04;;;;;;;3.95;2.97;;;;;;;28.77;63.58;99776.66;4926476;29;20039;-65
2022/08/15 07:15:43;;;;;;;7.10;3.00;;;;;;;28.94;61.76;99773.94;4951530;29;20098;-65
2022/08/15 07:18:39;;;;;;;4.13;2.47;;;;;;;29.00;61.60;99777.44;4951485;29;20031;-65
2022/08/15 07:21:14;;;;;;;4.78;3.20;;;;;;;29.26;61.35;99780.78;4951747;28;20062;-66
2022/08/15 07:23:59;;;;;;;4.95;2.80;;;;;;;29.33;60.71;99777.50;4933778;28;20513;-66
2022/08/15 07:26:29;;;;;;;3.92;2.58;;;;;;;29.40;61.35;99768.69;4935503;29;20035;-65
2022/08/15 07:29:07;;;;;;;3.63;2.60;;;;;;;29.58;59.97;99773.69;4998359;28;20091;-65
2022/08/15 07:31:34;;;;;;;3.88;2.83;;;;;;;29.73;58.52;99771.47;5011872;28;20033;-65
2022/08/15 07:34:14;;;;;;;4.57;2.83;;;;;;;29.76;58.80;99766.88;5009915;28;20037;-65
2022/08/15 07:36:54;;;;;;;4.53;2.90;;;;;;;30.07;58.69;99767.31;5011517;28;20041;-65
2022/08/15 07:39:28;;;;;;;6.18;2.65;;;;;;;29.87;57.99;99770.41;5010792;28;20034;-66
2022/08/15 07:41:54;;;;;;;4.03;2.60;;;;;;;30.11;57.28;99770.59;5006994;28;20125;-65
2022/08/15 07:44:27;;;;;;;6.53;2.88;;;;;;;30.34;56.52;99776.06;5008075;28;20109;-66
2022/08/15 07:47:00;;;;;;;5.80;2.88;;;;;;;30.45;56.25;99778.81;5010795;28;20095;-65
2022/08/15 07:49:34;;;;;;;5.35;3.10;;;;;;;30.63;54.85;99786.56;4994929;28;20030;-66
2022/08/15 07:52:15;;;;;;;5.88;2.83;;;;;;;30.72;54.92;99777.91;5010092;28;20184;-66
2022/08/15 07:54:41;;;;;;;4.10;2.90;;;;;;;30.76;54.80;99775.63;5007527;28;20129;-66
2022/08/15 07:57:22;;;;;;;4.15;2.83;;;;;;;30.73;54.18;99771.84;5011717;28;20134;-65
2022/08/15 08:00:20;;;;;;;6.95;2.97;;;;;;;30.65;53.82;99772.88;5010504;28;20041;-65
2022/08/15 08:03:05;;;;;;;3.75;2.67;;;;;;;30.46;55.21;99774.75;5001818;28;20041;-66
2022/08/15 08:05:40;;;;;;;3.88;2.72;;;;;;;30.80;54.71;99774.06;5010780;28;20037;-66
2022/08/15 08:08:08;;;;;;;7.28;2.92;;;;;;;31.04;53.35;99774.19;5010367;28;20029;-66
2022/08/15 08:10:40;;;;;;;5.03;2.90;;;;;;;31.28;53.31;99778.31;5010071;28;20456;-65
2022/08/15 08:13:30;;;;;;;3.65;2.67;;;;;;;31.48;53.15;99769.53;5010717;28;20073;-66
2022/08/15 08:16:01;;;;;;;3.80;2.60;;;;;;;31.51;52.62;99766.50;5010803;28;20045;-66
2022/08/15 08:18:41;;;;;;;3.45;2.45;;;;;;;31.68;52.40;99764.28;5007746;28;20062;-66
2022/08/15 08:21:14;;;;;;;7.25;2.85;;;;;;;31.98;51.16;99765.00;5022501;28;20092;-66
2022/08/15 08:23:59;;;;;;;4.10;2.67;;;;;;;32.18;51.25;99760.97;4987977;28;20057;-66
2022/08/15 08:26:35;;;;;;;4.55;2.80;;;;;;;32.25;51.36;99770.78;5007080;28;20041;-65
2022/08/15 08:29:07;;;;;;;4.30;2.90;;;;;;;32.21;50.64;99759.91;5010083;28;20114;-66
2022/08/15 08:32:01;;;;;;;4.38;2.78;;;;;;;32.16;50.57;99771.13;5010765;28;20041;-66
2022/08/15 08:34:54;;;;;;;3.97;2.85;;;;;;;32.49;49.79;99767.97;5015445;28;20041;-66
2022/08/15 08:37:48;;;;;;;5.05;2.50;;;;;;;32.70;49.66;99766.91;5036877;28;20494;-66
2022/08/15 08:43:38;;;;;;;3.88;2.70;;;;;;;32.79;48.95;99768.56;5012392;28;20038;-66
2022/08/15 08:46:31;;;;;;;7.40;3.08;;;;;;;32.92;49.27;99774.19;5011151;28;20042;-65
2022/08/15 08:49:02;;;;;;;2.65;2.13;;;;;;;32.87;49.24;99769.44;5010874;28;20026;-65
2022/08/15 08:51:42;;;;;;;3.78;2.63;;;;;;;33.09;48.22;99773.97;5007445;28;20521;-65
2022/08/15 08:54:33;;;;;;;3.70;2.75;;;;;;;33.17;48.02;99766.47;4990308;28;20046;-66
2022/08/15 08:57:03;;;;;;;3.65;2.35;;;;;;;33.41;47.91;99772.66;5016840;28;20037;-65
2022/08/15 08:59:35;;;;;;;3.53;2.60;;;;;;;33.40;46.21;99776.75;4990568;28;20034;-66
2022/08/15 09:02:30;;;;;;;4.95;2.88;;;;;;;33.42;47.05;99776.19;4991660;28;20119;-67
2022/08/15 09:05:02;;;;;;;3.15;2.63;;;;;;;33.59;47.41;99771.09;4991035;28;20082;-65
2022/08/15 09:07:32;;;;;;;4.45;2.58;;;;;;;33.88;47.25;99774.88;4991227;28;20096;-66
2022/08/15 09:10:00;;;;;;;;;;;;;;;33.23;46.96;99776.28;4990925;28;20034;-66
2022/08/15 09:15:21;;;;;;;5.13;2.83;;;;;;;33.74;46.80;99770.59;5009828;28;20087;-66
2022/08/15 09:18:05;;;;;;;5.97;2.35;;;;;;;34.14;45.88;99772.88;5010470;28;20103;-64
2022/08/15 09:20:34;;;;;;;7.78;2.53;;;;;;;34.35;45.29;99767.34;5010843;28;20042;-66
2022/08/15 09:23:01;;;;;;;3.30;2.45;;;;;;;34.51;44.66;99769.81;4997262;28;20050;-66
2022/08/15 09:25:30;;;;;;;4.18;2.30;;;;;;;34.61;44.00;99764.53;5015858;28;20026;-66
2022/08/15 09:27:56;;;;;;;5.20;2.47;;;;;;;34.17;43.89;99757.03;5009142;28;20057;-66
2022/08/15 09:30:23;;;;;;;4.03;2.70;;;;;;;33.93;44.80;99763.63;5011040;28;20065;-66
2022/08/15 09:33:07;;;;;;;3.67;2.80;;;;;;;33.60;45.53;99764.97;5010295;28;20471;-67
2022/08/15 09:36:09;;;;;;;3.28;2.60;;;;;;;34.07;43.92;99756.00;5002381;28;20198;-66
2022/08/15 09:38:56;;;;;;;5.47;2.47;;;;;;;33.99;43.93;99757.94;4993589;28;20038;-66
2022/08/15 09:41:42;;;;;;;4.90;2.60;;;;;;;34.11;44.34;99759.22;4995368;28;20050;-66
2022/08/15 09:44:32;;;;;;;3.70;2.53;;;;;;;34.17;44.53;99748.66;5010344;28;20065;-66
2022/08/15 09:47:01;;;;;;;4.20;2.58;;;;;;;34.39;44.29;99757.34;4994767;28;20030;-65
2022/08/15 09:49:45;;;;;;;3.50;2.25;;;;;;;34.77;44.13;99743.78;4993987;28;20402;-66
2022/08/15 09:52:35;;;;;;;3.67;2.60;;;;;;;34.88;43.44;99748.38;5006707;28;20046;-66
2022/08/15 09:55:22;;;;;;;;;;;;;;;35.06;43.16;99744.66;4999995;28;20113;-66
2022/08/15 09:57:52;;;;;;;3.80;2.30;;;;;;;35.36;42.37;99745.69;5007184;28;19917;-66
2022/08/15 10:00:27;;;;;;;3.88;2.58;;;;;;;35.56;42.22;99744.16;5011876;28;20506;-66
2022/08/15 10:03:00;;;;;;;5.03;2.67;;;;;;;35.75;42.31;99752.34;5012221;28;20034;-66
2022/08/15 10:05:39;;;;;;;3.78;2.40;;;;;;;35.61;42.19;99739.72;4995458;28;20030;-66
2022/08/15 10:08:07;;;;;;;3.88;2.75;;;;;;;35.74;41.85;99739.59;5024992;28;20405;-66
2022/08/15 10:10:34;;;;;;;4.22;2.55;;;;;;;35.55;41.69;99736.31;5033603;28;20040;-66
2022/08/15 10:13:26;;;;;;;3.30;2.50;;;;;;;35.27;42.55;99723.75;5021530;22;20076;-70
2022/08/15 10:15:53;;;;;;;3.20;2.28;;;;;;;35.48;42.19;99731.41;5021571;28;20033;-70
2022/08/15 10:18:22;;;;;;;3.10;2.28;;;;;;;35.81;42.08;99730.50;5032664;28;20061;-70
2022/08/15 10:20:55;;;;;;;3.17;2.25;;;;;;;35.91;41.66;99737.09;5016064;28;20033;-70
2022/08/15 10:23:46;;;;;;;4.07;2.35;;;;;;;36.11;41.42;99734.22;5032725;28;20099;-72
2022/08/15 10:26:20;;;;;;;3.88;2.30;;;;;;;36.26;41.22;99733.53;5006985;28;20089;-71
2022/08/15 10:29:00;;;;;;;3.63;2.65;;;;;;;36.33;40.29;99732.84;5033256;28;20041;-71
2022/08/15 10:31:29;;;;;;;3.57;2.13;;;;;;;36.45;40.09;99722.78;5030068;28;20084;-72
2022/08/15 10:33:59;;;;;;;4.28;2.83;;;;;;;36.56;40.08;99721.69;5033158;28;20060;-70
2022/08/15 10:36:30;;;;;;;2.80;2.13;;;;;;;36.64;41.31;99728.84;5009292;28;20409;-71
2022/08/15 10:39:17;;;;;;;4.75;2.50;;;;;;;36.75;39.74;99722.09;5026136;28;20041;-71
2022/08/15 10:41:46;;;;;;;5.97;2.28;;;;;;;36.93;39.82;99724.59;5021391;28;20088;-70
2022/08/15 10:44:32;;;;;;;2.25;1.95;;;;;;;36.86;39.38;99725.31;5026674;28;20017;-71
2022/08/15 10:47:08;;;;;;;4.00;2.50;;;;;;;36.39;39.95;99715.84;5025162;28;20067;-70
2022/08/15 10:50:08;;;;;;;3.22;2.25;;;;;;;36.80;40.51;99709.97;5005323;28;20055;-72
2022/08/15 10:52:37;;;;;;;2.65;2.15;;;;;;;36.95;39.70;99705.09;5026101;28;20037;-71
2022/08/15 10:55:32;;;;;;;4.82;2.17;;;;;;;37.27;39.69;99712.22;5028123;28;20029;-72
2022/08/15 10:58:10;;;;;;;3.83;2.25;;;;;;;37.17;38.89;99711.31;5024950;28;20043;-71
2022/08/15 11:00:51;;;;;;;3.38;2.25;;;;;;;37.29;38.92;99710.34;5024392;28;20033;-72
2022/08/15 11:03:49;;;;;;;3.60;2.47;;;;;;;37.11;38.90;99703.81;5030627;28;20124;-71
2022/08/15 11:06:20;;;;;;;4.20;2.42;;;;;;;37.31;38.66;99710.56;5000533;28;20536;-71
2022/08/15 11:08:50;;;;;;;3.20;2.10;;;;;;;37.37;38.61;99705.50;5027519;28;20126;-72
2022/08/15 11:11:19;;;;;;;2.13;1.77;;;;;;;37.45;38.18;99702.69;5021328;28;20099;-71
2022/08/15 11:13:57;;;;;;;2.75;2.08;;;;;;;37.43;38.01;99694.06;5023805;28;20075;-71
2022/08/15 11:16:47;;;;;;;4.57;2.35;;;;;;;37.45;37.90;99692.19;5013636;28;20450;-71
2022/08/15 11:19:19;;;;;;;3.55;2.08;;;;;;;37.54;37.91;99699.28;5028086;28;20036;-71
2022/08/15 11:21:58;;;;;;;3.05;2.38;;;;;;;37.48;38.47;99682.63;5011788;28;20486;-71
2022/08/15 11:24:25;;;;;;;2.53;2.03;;;;;;;37.68;37.43;99694.94;4994013;28;20120;-70
2022/08/15 11:27:05;;;;;;;6.85;2.20;;;;;;;37.68;37.12;99697.75;5011828;28;20520;-71
2022/08/15 11:29:33;;;;;;;2.95;2.15;;;;;;;37.77;37.51;99700.75;5010917;28;20117;-71
2022/08/15 11:31:59;;;;;;;3.42;2.03;;;;;;;37.67;36.47;99685.75;5027291;28;20047;-71
2022/08/15 11:34:38;;;;;;;3.28;2.35;;;;;;;37.30;37.10;99688.63;5025823;28;20404;-70
2022/08/15 11:37:18;;;;;;;3.28;2.38;;;;;;;37.11;37.90;99695.38;5016117;28;20503;-70
2022/08/15 11:39:50;;;;;;;3.42;2.17;;;;;;;37.37;37.31;99685.81;5026298;28;20509;-71
2022/08/15 11:42:18;;;;;;;4.05;2.30;;;;;;;37.51;37.21;99683.56;5029789;28;20148;-71
2022/08/15 11:44:58;;;;;;;3.70;2.70;;;;;;;37.05;36.74;99688.47;5031158;28;20509;-70
2022/08/15 11:47:26;;;;;;;3.50;2.15;;;;;;;36.54;37.15;99680.13;5024074;28;20034;-70
2022/08/15 11:50:00;;;;;;;3.90;2.28;;;;;;;36.34;38.70;99671.81;5028533;28;20140;-70
2022/08/15 11:52:32;;;;;;;2.95;2.25;;;;;;;36.85;38.39;99670.47;5030833;28;20112;-70
2022/08/15 11:55:09;;;;;;;3.58;2.25;;;;;;;37.08;36.81;99671.22;5001421;28;20558;-70
2022/08/15 11:57:45;;;;;;;3.38;2.22;;;;;;;36.95;36.95;99676.28;5024525;28;20064;-70
2022/08/15 12:00:26;;;;;;;4.57;2.10;;;;;;;37.17;37.16;99666.34;5028610;28;20026;-70
2022/08/15 12:02:53;;;;;;;3.35;2.17;;;;;;;36.56;37.81;99663.50;5026959;28;20041;-70
2022/08/15 12:05:35;;;;;;;4.00;2.40;;;;;;;36.13;37.95;99663.53;5028668;28;20057;-70
2022/08/15 12:08:04;;;;;;;5.80;2.53;;;;;;;35.78;39.48;99650.25;5016738;28;20463;-70
2022/08/15 12:10:37;;;;;;;5.88;2.45;;;;;;;36.03;39.82;99652.09;5021795;28;20030;-70
2022/08/15 12:13:04;;;;;;;5.25;2.85;;;;;;;35.58;39.79;99645.50;5028503;28;20043;-70